sensor_id;sensor_type;location;lat;lon;timestamp;P1;durP1;ratioP1;P2;durP2;ratioP2
59555;SDS011;45374;52.746;6.304;2022-08-21T00:01:36;7.55;;;5.85;;
59555;SDS011;45374;52.746;6.304;2022-08-21T00:04:06;10.70;;;6.82;;
59555;SDS011;45374;52.746;6.304;2022-08-21T00:06:32;11.80;;;7.10;;
59555;SDS011;45374;52.746;6.304;2022-08-21T00:08:58;11.32;;;7.50;;
59555;SDS011;45374;52.746;6.304;2022-08-21T00:11:25;11.65;;;7.30;;
59555;SDS011;45374;52.746;6.304;2022-08-21T00:13:52;12.63;;;7.80;;
59555;SDS011;45374;52.746;6.304;2022-08-21T00:16:18;12.13;;;7.60;;
59555;SDS011;45374;52.746;6.304;2022-08-21T00:18:43;14.32;;;8.27;;
59555;SDS011;45374;52.746;6.304;2022-08-21T00:21:11;14.55;;;7.68;;
59555;SDS011;45374;52.746;6.304;2022-08-21T00:23:37;14.73;;;8.68;;
59555;SDS011;45374;52.746;6.304;2022-08-21T00:26:03;14.00;;;8.88;;
59555;SDS011;45374;52.746;6.304;2022-08-21T00:28:29;18.00;;;10.75;;
59555;SDS011;45374;52.746;6.304;2022-08-21T00:30:55;18.90;;;11.05;;
59555;SDS011;45374;52.746;6.304;2022-08-21T00:33:21;16.65;;;10.15;;
59555;SDS011;45374;52.746;6.304;2022-08-21T00:35:48;16.67;;;10.25;;
59555;SDS011;45374;52.746;6.304;2022-08-21T00:38:14;13.85;;;9.30;;
59555;SDS011;45374;52.746;6.304;2022-08-21T00:40:42;13.60;;;9.00;;
59555;SDS011;45374;52.746;6.304;2022-08-21T00:43:13;11.63;;;8.85;;
59555;SDS011;45374;52.746;6.304;2022-08-21T00:45:40;10.75;;;8.05;;
59555;SDS011;45374;52.746;6.304;2022-08-21T00:48:06;10.75;;;7.88;;
59555;SDS011;45374;52.746;6.304;2022-08-21T00:50:33;12.13;;;6.85;;
59555;SDS011;45374;52.746;6.304;2022-08-21T00:53:02;7.85;;;5.80;;
59555;SDS011;45374;52.746;6.304;2022-08-21T00:55:31;7.10;;;5.80;;
59555;SDS011;45374;52.746;6.304;2022-08-21T00:57:58;11.18;;;6.25;;
59555;SDS011;45374;52.746;6.304;2022-08-21T01:00:28;9.02;;;5.72;;
59555;SDS011;45374;52.746;6.304;2022-08-21T01:02:56;8.60;;;5.93;;
59555;SDS011;45374;52.746;6.304;2022-08-21T01:05:22;7.68;;;5.40;;
59555;SDS011;45374;52.746;6.304;2022-08-21T01:07:48;6.07;;;4.70;;
59555;SDS011;45374;52.746;6.304;2022-08-21T01:10:14;8.05;;;5.80;;
59555;SDS011;45374;52.746;6.304;2022-08-21T01:12:41;9.50;;;5.65;;
59555;SDS011;45374;52.746;6.304;2022-08-21T01:15:07;7.88;;;6.18;;
59555;SDS011;45374;52.746;6.304;2022-08-21T01:17:35;10.90;;;6.40;;
59555;SDS011;45374;52.746;6.304;2022-08-21T01:20:04;9.50;;;6.93;;
59555;SDS011;45374;52.746;6.304;2022-08-21T01:22:32;7.60;;;5.47;;
59555;SDS011;45374;52.746;6.304;2022-08-21T01:24:58;4.85;;;4.25;;
59555;SDS011;45374;52.746;6.304;2022-08-21T01:27:23;7.80;;;5.40;;
59555;SDS011;45374;52.746;6.304;2022-08-21T01:29:57;7.78;;;5.13;;
59555;SDS011;45374;52.746;6.304;2022-08-21T01:32:28;8.88;;;6.35;;
59555;SDS011;45374;52.746;6.304;2022-08-21T01:34:54;11.82;;;7.40;;
59555;SDS011;45374;52.746;6.304;2022-08-21T01:37:20;7.50;;;6.68;;
59555;SDS011;45374;52.746;6.304;2022-08-21T01:39:47;7.97;;;6.20;;
59555;SDS011;45374;52.746;6.304;2022-08-21T01:42:13;5.82;;;4.72;;
59555;SDS011;45374;52.746;6.304;2022-08-21T01:44:39;5.60;;;4.78;;
59555;SDS011;45374;52.746;6.304;2022-08-21T01:47:07;7.47;;;4.85;;
59555;SDS011;45374;52.746;6.304;2022-08-21T01:49:35;5.18;;;4.10;;
59555;SDS011;45374;52.746;6.304;2022-08-21T01:52:02;5.18;;;3.92;;
59555;SDS011;45374;52.746;6.304;2022-08-21T01:54:29;3.58;;;3.28;;
59555;SDS011;45374;52.746;6.304;2022-08-21T01:56:55;3.42;;;3.00;;
59555;SDS011;45374;52.746;6.304;2022-08-21T01:59:21;3.95;;;3.58;;
59555;SDS011;45374;52.746;6.304;2022-08-21T02:01:49;3.67;;;3.38;;
59555;SDS011;45374;52.746;6.304;2022-08-21T02:04:14;5.20;;;3.33;;
59555;SDS011;45374;52.746;6.304;2022-08-21T02:06:40;3.75;;;3.30;;
59555;SDS011;45374;52.746;6.304;2022-08-21T02:09:07;3.75;;;2.55;;
59555;SDS011;45374;52.746;6.304;2022-08-21T02:11:34;2.63;;;2.40;;
59555;SDS011;45374;52.746;6.304;2022-08-21T02:14:01;4.03;;;2.72;;
59555;SDS011;45374;52.746;6.304;2022-08-21T02:16:27;3.88;;;3.20;;
59555;SDS011;45374;52.746;6.304;2022-08-21T02:18:52;4.43;;;3.15;;
59555;SDS011;45374;52.746;6.304;2022-08-21T02:21:18;6.47;;;4.30;;
59555;SDS011;45374;52.746;6.304;2022-08-21T02:23:44;6.50;;;4.85;;
59555;SDS011;45374;52.746;6.304;2022-08-21T02:26:10;7.70;;;5.20;;
59555;SDS011;45374;52.746;6.304;2022-08-21T02:28:36;7.68;;;5.78;;
59555;SDS011;45374;52.746;6.304;2022-08-21T02:31:03;6.82;;;4.93;;
59555;SDS011;45374;52.746;6.304;2022-08-21T02:33:29;5.38;;;4.47;;
59555;SDS011;45374;52.746;6.304;2022-08-21T02:35:54;4.85;;;3.70;;
59555;SDS011;45374;52.746;6.304;2022-08-21T02:38:28;5.75;;;4.40;;
59555;SDS011;45374;52.746;6.304;2022-08-21T02:40:56;5.50;;;4.90;;
59555;SDS011;45374;52.746;6.304;2022-08-21T02:43:22;5.22;;;4.72;;
59555;SDS011;45374;52.746;6.304;2022-08-21T02:45:50;5.55;;;4.70;;
59555;SDS011;45374;52.746;6.304;2022-08-21T02:48:17;7.00;;;5.30;;
59555;SDS011;45374;52.746;6.304;2022-08-21T02:50:47;6.95;;;5.80;;
59555;SDS011;45374;52.746;6.304;2022-08-21T02:53:16;9.23;;;6.13;;
59555;SDS011;45374;52.746;6.304;2022-08-21T02:55:46;9.45;;;6.47;;
59555;SDS011;45374;52.746;6.304;2022-08-21T02:58:14;7.50;;;5.90;;
59555;SDS011;45374;52.746;6.304;2022-08-21T03:00:41;7.35;;;6.43;;
59555;SDS011;45374;52.746;6.304;2022-08-21T03:03:07;9.10;;;6.47;;
59555;SDS011;45374;52.746;6.304;2022-08-21T03:05:33;9.45;;;6.53;;
59555;SDS011;45374;52.746;6.304;2022-08-21T03:08:00;8.43;;;6.72;;
59555;SDS011;45374;52.746;6.304;2022-08-21T03:10:27;8.25;;;6.35;;
59555;SDS011;45374;52.746;6.304;2022-08-21T03:12:53;7.43;;;6.25;;
59555;SDS011;45374;52.746;6.304;2022-08-21T03:15:20;8.93;;;6.10;;
59555;SDS011;45374;52.746;6.304;2022-08-21T03:17:49;9.15;;;6.70;;
59555;SDS011;45374;52.746;6.304;2022-08-21T03:20:16;9.98;;;7.05;;
59555;SDS011;45374;52.746;6.304;2022-08-21T03:22:43;8.50;;;7.50;;
59555;SDS011;45374;52.746;6.304;2022-08-21T03:25:09;13.00;;;8.63;;
59555;SDS011;45374;52.746;6.304;2022-08-21T03:27:35;13.13;;;9.25;;
59555;SDS011;45374;52.746;6.304;2022-08-21T03:30:03;9.65;;;8.50;;
59555;SDS011;45374;52.746;6.304;2022-08-21T03:32:30;12.52;;;9.60;;
59555;SDS011;45374;52.746;6.304;2022-08-21T03:34:56;14.25;;;10.25;;
59555;SDS011;45374;52.746;6.304;2022-08-21T03:37:22;18.02;;;11.05;;
59555;SDS011;45374;52.746;6.304;2022-08-21T03:39:49;18.75;;;11.13;;
59555;SDS011;45374;52.746;6.304;2022-08-21T03:42:15;14.38;;;10.82;;
59555;SDS011;45374;52.746;6.304;2022-08-21T03:44:41;16.30;;;10.60;;
59555;SDS011;45374;52.746;6.304;2022-08-21T03:47:07;16.10;;;11.63;;
59555;SDS011;45374;52.746;6.304;2022-08-21T03:49:33;19.13;;;12.13;;
59555;SDS011;45374;52.746;6.304;2022-08-21T03:51:59;16.70;;;12.10;;
59555;SDS011;45374;52.746;6.304;2022-08-21T03:54:25;17.77;;;12.07;;
59555;SDS011;45374;52.746;6.304;2022-08-21T03:56:50;16.50;;;11.18;;
59555;SDS011;45374;52.746;6.304;2022-08-21T03:59:17;18.08;;;11.68;;
59555;SDS011;45374;52.746;6.304;2022-08-21T04:01:52;15.40;;;11.43;;
59555;SDS011;45374;52.746;6.304;2022-08-21T04:04:19;22.17;;;12.30;;
59555;SDS011;45374;52.746;6.304;2022-08-21T04:06:45;16.40;;;11.75;;
59555;SDS011;45374;52.746;6.304;2022-08-21T04:09:11;18.60;;;11.98;;
59555;SDS011;45374;52.746;6.304;2022-08-21T04:11:36;15.93;;;11.68;;
59555;SDS011;45374;52.746;6.304;2022-08-21T04:14:02;17.88;;;12.50;;
59555;SDS011;45374;52.746;6.304;2022-08-21T04:16:28;21.15;;;12.48;;
59555;SDS011;45374;52.746;6.304;2022-08-21T04:18:53;17.08;;;12.43;;
59555;SDS011;45374;52.746;6.304;2022-08-21T04:21:19;16.55;;;12.38;;
59555;SDS011;45374;52.746;6.304;2022-08-21T04:23:44;17.38;;;13.20;;
59555;SDS011;45374;52.746;6.304;2022-08-21T04:26:10;16.65;;;12.23;;
59555;SDS011;45374;52.746;6.304;2022-08-21T04:28:36;18.65;;;12.13;;
59555;SDS011;45374;52.746;6.304;2022-08-21T04:31:01;18.10;;;13.00;;
59555;SDS011;45374;52.746;6.304;2022-08-21T04:33:27;19.95;;;13.27;;
59555;SDS011;45374;52.746;6.304;2022-08-21T04:35:52;16.95;;;12.80;;
59555;SDS011;45374;52.746;6.304;2022-08-21T04:38:19;23.48;;;12.35;;
59555;SDS011;45374;52.746;6.304;2022-08-21T04:40:45;16.02;;;12.38;;
59555;SDS011;45374;52.746;6.304;2022-08-21T04:43:13;17.48;;;11.55;;
59555;SDS011;45374;52.746;6.304;2022-08-21T04:45:43;17.85;;;12.57;;
59555;SDS011;45374;52.746;6.304;2022-08-21T04:48:11;16.90;;;11.80;;
59555;SDS011;45374;52.746;6.304;2022-08-21T04:50:45;18.75;;;11.20;;
59555;SDS011;45374;52.746;6.304;2022-08-21T04:53:17;16.00;;;11.48;;
59555;SDS011;45374;52.746;6.304;2022-08-21T04:55:47;15.10;;;11.10;;
59555;SDS011;45374;52.746;6.304;2022-08-21T04:58:13;14.50;;;11.05;;
59555;SDS011;45374;52.746;6.304;2022-08-21T05:00:42;14.05;;;10.65;;
59555;SDS011;45374;52.746;6.304;2022-08-21T05:03:09;16.83;;;10.88;;
59555;SDS011;45374;52.746;6.304;2022-08-21T05:05:36;15.15;;;10.10;;
59555;SDS011;45374;52.746;6.304;2022-08-21T05:08:02;15.35;;;10.07;;
59555;SDS011;45374;52.746;6.304;2022-08-21T05:10:28;14.48;;;9.30;;
59555;SDS011;45374;52.746;6.304;2022-08-21T05:12:56;14.05;;;9.00;;
59555;SDS011;45374;52.746;6.304;2022-08-21T05:15:22;14.15;;;8.90;;
59555;SDS011;45374;52.746;6.304;2022-08-21T05:17:48;14.25;;;8.48;;
59555;SDS011;45374;52.746;6.304;2022-08-21T05:20:15;14.85;;;8.45;;
59555;SDS011;45374;52.746;6.304;2022-08-21T05:22:41;10.75;;;7.90;;
59555;SDS011;45374;52.746;6.304;2022-08-21T05:25:08;16.60;;;7.85;;
59555;SDS011;45374;52.746;6.304;2022-08-21T05:27:34;16.63;;;7.95;;
59555;SDS011;45374;52.746;6.304;2022-08-21T05:30:00;15.63;;;8.38;;
59555;SDS011;45374;52.746;6.304;2022-08-21T05:32:26;12.63;;;8.18;;
59555;SDS011;45374;52.746;6.304;2022-08-21T05:34:53;13.13;;;8.02;;
59555;SDS011;45374;52.746;6.304;2022-08-21T05:37:19;15.30;;;7.78;;
59555;SDS011;45374;52.746;6.304;2022-08-21T05:39:45;19.17;;;8.18;;
59555;SDS011;45374;52.746;6.304;2022-08-21T05:42:11;13.88;;;7.57;;
59555;SDS011;45374;52.746;6.304;2022-08-21T05:44:36;14.13;;;7.70;;
59555;SDS011;45374;52.746;6.304;2022-08-21T05:47:03;15.85;;;7.43;;
59555;SDS011;45374;52.746;6.304;2022-08-21T05:49:33;13.25;;;7.43;;
59555;SDS011;45374;52.746;6.304;2022-08-21T05:51:59;15.43;;;7.53;;
59555;SDS011;45374;52.746;6.304;2022-08-21T05:54:24;14.93;;;7.47;;
59555;SDS011;45374;52.746;6.304;2022-08-21T05:56:50;11.98;;;7.45;;
59555;SDS011;45374;52.746;6.304;2022-08-21T05:59:16;13.27;;;7.82;;
59555;SDS011;45374;52.746;6.304;2022-08-21T06:01:43;13.40;;;7.55;;
59555;SDS011;45374;52.746;6.304;2022-08-21T06:04:10;14.35;;;7.70;;
59555;SDS011;45374;52.746;6.304;2022-08-21T06:06:36;15.15;;;8.05;;
59555;SDS011;45374;52.746;6.304;2022-08-21T06:09:02;13.43;;;7.50;;
59555;SDS011;45374;52.746;6.304;2022-08-21T06:11:28;15.00;;;7.72;;
59555;SDS011;45374;52.746;6.304;2022-08-21T06:13:54;16.02;;;7.75;;
59555;SDS011;45374;52.746;6.304;2022-08-21T06:16:19;13.68;;;7.50;;
59555;SDS011;45374;52.746;6.304;2022-08-21T06:18:46;16.60;;;7.75;;
59555;SDS011;45374;52.746;6.304;2022-08-21T06:21:12;11.95;;;7.85;;
59555;SDS011;45374;52.746;6.304;2022-08-21T06:23:38;12.70;;;7.15;;
59555;SDS011;45374;52.746;6.304;2022-08-21T06:26:05;15.27;;;7.30;;
59555;SDS011;45374;52.746;6.304;2022-08-21T06:28:32;15.35;;;7.97;;
59555;SDS011;45374;52.746;6.304;2022-08-21T06:30:58;13.75;;;7.72;;
59555;SDS011;45374;52.746;6.304;2022-08-21T06:33:24;13.35;;;7.97;;
59555;SDS011;45374;52.746;6.304;2022-08-21T06:35:50;13.63;;;7.43;;
59555;SDS011;45374;52.746;6.304;2022-08-21T06:38:15;14.75;;;7.00;;
59555;SDS011;45374;52.746;6.304;2022-08-21T06:40:41;14.15;;;7.53;;
59555;SDS011;45374;52.746;6.304;2022-08-21T06:43:09;15.18;;;7.28;;
59555;SDS011;45374;52.746;6.304;2022-08-21T06:45:39;16.08;;;7.45;;
59555;SDS011;45374;52.746;6.304;2022-08-21T06:48:05;10.88;;;6.70;;
59555;SDS011;45374;52.746;6.304;2022-08-21T06:50:34;13.90;;;7.57;;
59555;SDS011;45374;52.746;6.304;2022-08-21T06:53:04;13.13;;;6.55;;
59555;SDS011;45374;52.746;6.304;2022-08-21T06:55:32;14.63;;;7.60;;
59555;SDS011;45374;52.746;6.304;2022-08-21T06:57:57;13.23;;;6.80;;
59555;SDS011;45374;52.746;6.304;2022-08-21T07:00:23;17.73;;;6.78;;
59555;SDS011;45374;52.746;6.304;2022-08-21T07:02:49;12.18;;;7.50;;
59555;SDS011;45374;52.746;6.304;2022-08-21T07:05:15;19.23;;;6.38;;
59555;SDS011;45374;52.746;6.304;2022-08-21T07:07:41;12.38;;;6.47;;
59555;SDS011;45374;52.746;6.304;2022-08-21T07:10:06;15.18;;;7.00;;
59555;SDS011;45374;52.746;6.304;2022-08-21T07:12:32;12.60;;;6.63;;
59555;SDS011;45374;52.746;6.304;2022-08-21T07:15:01;15.43;;;6.82;;
59555;SDS011;45374;52.746;6.304;2022-08-21T07:17:26;13.35;;;6.38;;
59555;SDS011;45374;52.746;6.304;2022-08-21T07:19:52;15.60;;;6.65;;
59555;SDS011;45374;52.746;6.304;2022-08-21T07:22:18;17.17;;;6.82;;
59555;SDS011;45374;52.746;6.304;2022-08-21T07:24:45;14.35;;;5.95;;
59555;SDS011;45374;52.746;6.304;2022-08-21T07:27:11;13.85;;;6.82;;
59555;SDS011;45374;52.746;6.304;2022-08-21T07:29:37;11.13;;;6.07;;
59555;SDS011;45374;52.746;6.304;2022-08-21T07:32:03;16.13;;;6.55;;
59555;SDS011;45374;52.746;6.304;2022-08-21T07:34:30;11.93;;;6.03;;
59555;SDS011;45374;52.746;6.304;2022-08-21T07:36:56;15.35;;;5.97;;
59555;SDS011;45374;52.746;6.304;2022-08-21T07:39:23;10.27;;;5.63;;
59555;SDS011;45374;52.746;6.304;2022-08-21T07:41:49;17.55;;;5.05;;
59555;SDS011;45374;52.746;6.304;2022-08-21T07:44:15;10.27;;;4.70;;
59555;SDS011;45374;52.746;6.304;2022-08-21T07:46:40;20.45;;;5.60;;
59555;SDS011;45374;52.746;6.304;2022-08-21T07:49:06;15.60;;;5.38;;
59555;SDS011;45374;52.746;6.304;2022-08-21T07:51:31;14.18;;;4.80;;
59555;SDS011;45374;52.746;6.304;2022-08-21T07:53:58;13.25;;;4.80;;
59555;SDS011;45374;52.746;6.304;2022-08-21T07:56:25;12.88;;;4.82;;
59555;SDS011;45374;52.746;6.304;2022-08-21T07:58:51;17.80;;;5.15;;
59555;SDS011;45374;52.746;6.304;2022-08-21T08:01:17;15.45;;;6.15;;
59555;SDS011;45374;52.746;6.304;2022-08-21T08:03:43;11.80;;;5.82;;
59555;SDS011;45374;52.746;6.304;2022-08-21T08:06:10;12.55;;;5.25;;
59555;SDS011;45374;52.746;6.304;2022-08-21T08:08:40;13.05;;;4.97;;
59555;SDS011;45374;52.746;6.304;2022-08-21T08:11:07;13.93;;;5.38;;
59555;SDS011;45374;52.746;6.304;2022-08-21T08:13:44;6.43;;;2.17;;
59555;SDS011;45374;52.746;6.304;2022-08-21T08:16:12;10.18;;;2.47;;
59555;SDS011;45374;52.746;6.304;2022-08-21T08:18:38;7.70;;;2.55;;
59555;SDS011;45374;52.746;6.304;2022-08-21T08:21:04;5.28;;;2.15;;
59555;SDS011;45374;52.746;6.304;2022-08-21T08:23:30;9.43;;;2.25;;
59555;SDS011;45374;52.746;6.304;2022-08-21T08:25:57;6.68;;;2.20;;
59555;SDS011;45374;52.746;6.304;2022-08-21T08:28:22;9.23;;;2.10;;
59555;SDS011;45374;52.746;6.304;2022-08-21T08:30:48;7.57;;;2.55;;
59555;SDS011;45374;52.746;6.304;2022-08-21T08:33:15;6.57;;;2.05;;
59555;SDS011;45374;52.746;6.304;2022-08-21T08:35:42;8.63;;;2.38;;
59555;SDS011;45374;52.746;6.304;2022-08-21T08:38:10;9.75;;;2.42;;
59555;SDS011;45374;52.746;6.304;2022-08-21T08:40:44;6.75;;;2.33;;
59555;SDS011;45374;52.746;6.304;2022-08-21T08:43:16;6.43;;;2.30;;
59555;SDS011;45374;52.746;6.304;2022-08-21T08:45:44;9.13;;;2.75;;
59555;SDS011;45374;52.746;6.304;2022-08-21T08:48:14;8.63;;;2.70;;
59555;SDS011;45374;52.746;6.304;2022-08-21T08:51:01;11.07;;;2.85;;
59555;SDS011;45374;52.746;6.304;2022-08-21T08:53:30;9.90;;;4.07;;
59555;SDS011;45374;52.746;6.304;2022-08-21T08:56:02;8.15;;;3.10;;
59555;SDS011;45374;52.746;6.304;2022-08-21T08:58:39;8.60;;;2.63;;
59555;SDS011;45374;52.746;6.304;2022-08-21T09:01:15;8.18;;;2.80;;
59555;SDS011;45374;52.746;6.304;2022-08-21T09:03:43;11.98;;;3.22;;
59555;SDS011;45374;52.746;6.304;2022-08-21T09:14:38;10.80;;;3.83;;
59555;SDS011;45374;52.746;6.304;2022-08-21T09:20:03;7.13;;;3.20;;
59555;SDS011;45374;52.746;6.304;2022-08-21T09:25:24;9.73;;;3.97;;
59555;SDS011;45374;52.746;6.304;2022-08-21T09:27:53;10.45;;;3.20;;
59555;SDS011;45374;52.746;6.304;2022-08-21T09:30:20;11.60;;;3.08;;
59555;SDS011;45374;52.746;6.304;2022-08-21T09:32:51;12.38;;;3.60;;
59555;SDS011;45374;52.746;6.304;2022-08-21T09:35:18;15.52;;;3.08;;
59555;SDS011;45374;52.746;6.304;2022-08-21T09:42:53;12.00;;;3.20;;
59555;SDS011;45374;52.746;6.304;2022-08-21T09:45:21;9.15;;;3.28;;
59555;SDS011;45374;52.746;6.304;2022-08-21T09:47:47;9.48;;;3.78;;
59555;SDS011;45374;52.746;6.304;2022-08-21T09:50:17;10.60;;;3.55;;
59555;SDS011;45374;52.746;6.304;2022-08-21T09:52:50;11.27;;;3.50;;
59555;SDS011;45374;52.746;6.304;2022-08-21T09:55:24;10.88;;;3.28;;
59555;SDS011;45374;52.746;6.304;2022-08-21T09:58:29;8.60;;;2.97;;
59555;SDS011;45374;52.746;6.304;2022-08-21T10:00:57;9.15;;;2.80;;
59555;SDS011;45374;52.746;6.304;2022-08-21T10:03:25;10.40;;;2.80;;
59555;SDS011;45374;52.746;6.304;2022-08-21T10:08:22;10.13;;;3.10;;
59555;SDS011;45374;52.746;6.304;2022-08-21T10:10:56;11.65;;;3.15;;
59555;SDS011;45374;52.746;6.304;2022-08-21T10:15:56;12.07;;;3.05;;
59555;SDS011;45374;52.746;6.304;2022-08-21T10:18:36;7.72;;;2.80;;
59555;SDS011;45374;52.746;6.304;2022-08-21T10:21:23;8.63;;;2.78;;
59555;SDS011;45374;52.746;6.304;2022-08-21T10:29:02;9.48;;;2.67;;
59555;SDS011;45374;52.746;6.304;2022-08-21T10:39:35;9.52;;;2.75;;
59555;SDS011;45374;52.746;6.304;2022-08-21T10:42:25;10.73;;;3.30;;
59555;SDS011;45374;52.746;6.304;2022-08-21T10:47:54;10.25;;;3.03;;
59555;SDS011;45374;52.746;6.304;2022-08-21T10:50:29;8.95;;;2.97;;
59555;SDS011;45374;52.746;6.304;2022-08-21T10:59:01;8.85;;;3.15;;
59555;SDS011;45374;52.746;6.304;2022-08-21T11:01:28;9.55;;;2.90;;
59555;SDS011;45374;52.746;6.304;2022-08-21T11:04:01;10.60;;;2.58;;
59555;SDS011;45374;52.746;6.304;2022-08-21T11:06:37;10.83;;;3.13;;
59555;SDS011;45374;52.746;6.304;2022-08-21T11:09:12;8.70;;;2.88;;
59555;SDS011;45374;52.746;6.304;2022-08-21T11:12:16;8.90;;;2.95;;
59555;SDS011;45374;52.746;6.304;2022-08-21T11:14:52;11.50;;;3.55;;
59555;SDS011;45374;52.746;6.304;2022-08-21T11:17:49;9.95;;;2.70;;
59555;SDS011;45374;52.746;6.304;2022-08-21T11:20:42;9.02;;;2.58;;
59555;SDS011;45374;52.746;6.304;2022-08-21T11:23:31;10.77;;;2.60;;
59555;SDS011;45374;52.746;6.304;2022-08-21T11:26:17;8.23;;;2.53;;
59555;SDS011;45374;52.746;6.304;2022-08-21T11:29:02;10.15;;;2.67;;
59555;SDS011;45374;52.746;6.304;2022-08-21T11:31:43;8.85;;;2.83;;
59555;SDS011;45374;52.746;6.304;2022-08-21T11:34:43;7.00;;;2.22;;
59555;SDS011;45374;52.746;6.304;2022-08-21T11:45:56;9.27;;;2.50;;
59555;SDS011;45374;52.746;6.304;2022-08-21T11:51:26;10.77;;;3.45;;
59555;SDS011;45374;52.746;6.304;2022-08-21T11:54:01;10.27;;;3.20;;
59555;SDS011;45374;52.746;6.304;2022-08-21T11:56:57;10.45;;;3.00;;
59555;SDS011;45374;52.746;6.304;2022-08-21T11:59:35;11.55;;;3.78;;
59555;SDS011;45374;52.746;6.304;2022-08-21T12:02:07;10.55;;;3.00;;
59555;SDS011;45374;52.746;6.304;2022-08-21T12:04:44;8.20;;;3.15;;
59555;SDS011;45374;52.746;6.304;2022-08-21T12:07:27;7.60;;;2.60;;
59555;SDS011;45374;52.746;6.304;2022-08-21T12:10:04;8.88;;;2.53;;
59555;SDS011;45374;52.746;6.304;2022-08-21T12:12:41;7.30;;;2.60;;
59555;SDS011;45374;52.746;6.304;2022-08-21T12:17:57;10.93;;;2.70;;
59555;SDS011;45374;52.746;6.304;2022-08-21T12:25:38;9.57;;;3.25;;
59555;SDS011;45374;52.746;6.304;2022-08-21T12:28:10;6.47;;;2.53;;
59555;SDS011;45374;52.746;6.304;2022-08-21T12:30:40;10.68;;;2.90;;
59555;SDS011;45374;52.746;6.304;2022-08-21T12:41:22;8.63;;;2.72;;
59555;SDS011;45374;52.746;6.304;2022-08-21T12:44:05;11.02;;;3.45;;
59555;SDS011;45374;52.746;6.304;2022-08-21T12:46:46;11.55;;;3.08;;
59555;SDS011;45374;52.746;6.304;2022-08-21T12:49:30;9.87;;;3.70;;
59555;SDS011;45374;52.746;6.304;2022-08-21T12:52:01;14.48;;;3.35;;
59555;SDS011;45374;52.746;6.304;2022-08-21T12:54:43;12.60;;;3.45;;
59555;SDS011;45374;52.746;6.304;2022-08-21T12:57:17;8.80;;;3.45;;
59555;SDS011;45374;52.746;6.304;2022-08-21T12:59:46;11.63;;;3.80;;
59555;SDS011;45374;52.746;6.304;2022-08-21T13:04:45;12.05;;;3.47;;
59555;SDS011;45374;52.746;6.304;2022-08-21T13:07:14;9.95;;;3.15;;
59555;SDS011;45374;52.746;6.304;2022-08-21T13:09:46;13.30;;;3.28;;
59555;SDS011;45374;52.746;6.304;2022-08-21T13:12:17;10.27;;;2.92;;
59555;SDS011;45374;52.746;6.304;2022-08-21T13:14:46;8.25;;;2.63;;
59555;SDS011;45374;52.746;6.304;2022-08-21T13:17:20;6.85;;;2.53;;
59555;SDS011;45374;52.746;6.304;2022-08-21T13:20:02;8.65;;;2.72;;
59555;SDS011;45374;52.746;6.304;2022-08-21T13:22:40;8.52;;;2.58;;
59555;SDS011;45374;52.746;6.304;2022-08-21T13:25:11;9.25;;;2.85;;
59555;SDS011;45374;52.746;6.304;2022-08-21T13:27:42;8.98;;;3.10;;
59555;SDS011;45374;52.746;6.304;2022-08-21T13:30:12;13.07;;;3.35;;
59555;SDS011;45374;52.746;6.304;2022-08-21T13:32:48;11.35;;;2.70;;
59555;SDS011;45374;52.746;6.304;2022-08-21T13:35:22;11.50;;;3.00;;
59555;SDS011;45374;52.746;6.304;2022-08-21T13:37:53;10.00;;;3.08;;
59555;SDS011;45374;52.746;6.304;2022-08-21T13:40:29;12.35;;;2.90;;
59555;SDS011;45374;52.746;6.304;2022-08-21T13:42:57;9.52;;;2.90;;
59555;SDS011;45374;52.746;6.304;2022-08-21T13:45:27;10.98;;;2.83;;
59555;SDS011;45374;52.746;6.304;2022-08-21T13:47:56;9.77;;;3.20;;
59555;SDS011;45374;52.746;6.304;2022-08-21T13:50:24;8.48;;;2.80;;
59555;SDS011;45374;52.746;6.304;2022-08-21T13:52:57;10.18;;;2.97;;
59555;SDS011;45374;52.746;6.304;2022-08-21T13:55:38;9.13;;;3.22;;
59555;SDS011;45374;52.746;6.304;2022-08-21T13:58:06;11.25;;;3.20;;
59555;SDS011;45374;52.746;6.304;2022-08-21T14:00:34;10.77;;;3.20;;
59555;SDS011;45374;52.746;6.304;2022-08-21T14:03:10;7.53;;;3.22;;
59555;SDS011;45374;52.746;6.304;2022-08-21T14:05:43;7.32;;;2.55;;
59555;SDS011;45374;52.746;6.304;2022-08-21T14:10:41;8.20;;;3.08;;
59555;SDS011;45374;52.746;6.304;2022-08-21T14:13:14;9.15;;;3.28;;
59555;SDS011;45374;52.746;6.304;2022-08-21T14:15:45;11.25;;;3.08;;
59555;SDS011;45374;52.746;6.304;2022-08-21T14:18:24;8.13;;;2.90;;
59555;SDS011;45374;52.746;6.304;2022-08-21T14:20:51;12.00;;;3.17;;
59555;SDS011;45374;52.746;6.304;2022-08-21T14:23:27;8.52;;;2.80;;
59555;SDS011;45374;52.746;6.304;2022-08-21T14:25:53;10.48;;;3.25;;
59555;SDS011;45374;52.746;6.304;2022-08-21T14:28:26;8.05;;;3.00;;
59555;SDS011;45374;52.746;6.304;2022-08-21T14:30:56;10.63;;;2.90;;
59555;SDS011;45374;52.746;6.304;2022-08-21T14:33:30;10.13;;;2.90;;
59555;SDS011;45374;52.746;6.304;2022-08-21T14:35:57;6.82;;;2.80;;
59555;SDS011;45374;52.746;6.304;2022-08-21T14:38:24;10.32;;;2.80;;
59555;SDS011;45374;52.746;6.304;2022-08-21T14:40:55;7.13;;;2.80;;
59555;SDS011;45374;52.746;6.304;2022-08-21T14:43:25;7.35;;;3.15;;
59555;SDS011;45374;52.746;6.304;2022-08-21T14:45:52;7.82;;;2.88;;
59555;SDS011;45374;52.746;6.304;2022-08-21T14:48:18;6.18;;;2.53;;
59555;SDS011;45374;52.746;6.304;2022-08-21T14:50:44;6.80;;;2.42;;
59555;SDS011;45374;52.746;6.304;2022-08-21T14:53:10;8.10;;;2.90;;
59555;SDS011;45374;52.746;6.304;2022-08-21T14:55:36;7.90;;;2.70;;
59555;SDS011;45374;52.746;6.304;2022-08-21T14:58:21;6.65;;;2.63;;
59555;SDS011;45374;52.746;6.304;2022-08-21T15:00:49;7.07;;;2.70;;
59555;SDS011;45374;52.746;6.304;2022-08-21T15:03:17;7.32;;;2.58;;
59555;SDS011;45374;52.746;6.304;2022-08-21T15:05:44;8.38;;;2.45;;
59555;SDS011;45374;52.746;6.304;2022-08-21T15:08:09;8.75;;;2.47;;
59555;SDS011;45374;52.746;6.304;2022-08-21T15:10:35;6.95;;;2.45;;
59555;SDS011;45374;52.746;6.304;2022-08-21T15:13:02;7.63;;;2.63;;
59555;SDS011;45374;52.746;6.304;2022-08-21T15:15:32;10.10;;;2.42;;
59555;SDS011;45374;52.746;6.304;2022-08-21T15:18:03;7.15;;;2.20;;
59555;SDS011;45374;52.746;6.304;2022-08-21T15:20:29;7.55;;;2.50;;
59555;SDS011;45374;52.746;6.304;2022-08-21T15:22:54;8.32;;;2.30;;
59555;SDS011;45374;52.746;6.304;2022-08-21T15:25:20;7.18;;;2.20;;
59555;SDS011;45374;52.746;6.304;2022-08-21T15:27:46;7.22;;;2.60;;
59555;SDS011;45374;52.746;6.304;2022-08-21T15:30:12;5.60;;;2.42;;
59555;SDS011;45374;52.746;6.304;2022-08-21T15:32:37;5.82;;;2.40;;
59555;SDS011;45374;52.746;6.304;2022-08-21T15:35:04;8.02;;;2.20;;
59555;SDS011;45374;52.746;6.304;2022-08-21T15:37:30;6.68;;;2.47;;
59555;SDS011;45374;52.746;6.304;2022-08-21T15:39:55;6.10;;;2.25;;
59555;SDS011;45374;52.746;6.304;2022-08-21T15:42:21;6.90;;;2.10;;
59555;SDS011;45374;52.746;6.304;2022-08-21T15:44:48;7.55;;;2.33;;
59555;SDS011;45374;52.746;6.304;2022-08-21T15:47:15;7.05;;;2.28;;
59555;SDS011;45374;52.746;6.304;2022-08-21T15:49:44;6.40;;;2.25;;
59555;SDS011;45374;52.746;6.304;2022-08-21T15:52:13;7.22;;;2.25;;
59555;SDS011;45374;52.746;6.304;2022-08-21T15:54:41;5.70;;;2.10;;
59555;SDS011;45374;52.746;6.304;2022-08-21T15:57:06;6.15;;;2.17;;
59555;SDS011;45374;52.746;6.304;2022-08-21T15:59:41;6.50;;;1.90;;
59555;SDS011;45374;52.746;6.304;2022-08-21T16:02:10;6.50;;;2.03;;
59555;SDS011;45374;52.746;6.304;2022-08-21T16:04:40;7.95;;;2.15;;
59555;SDS011;45374;52.746;6.304;2022-08-21T16:07:06;7.20;;;2.38;;
59555;SDS011;45374;52.746;6.304;2022-08-21T16:09:32;8.10;;;2.38;;